createdAt,value
2022-11-07T00:01:50.528Z,95.88
2022-11-07T00:06:54.622Z,95.76
2022-11-07T00:11:57.899Z,95.53
2022-11-07T00:17:01.428Z,95.54
2022-11-07T00:22:04.679Z,96.01
2022-11-07T00:27:08.655Z,96.33
2022-11-07T00:32:11.730Z,96.26
2022-11-07T00:37:15.178Z,96.58
2022-11-07T00:42:19.087Z,96.86
2022-11-07T00:47:22.453Z,97.35
2022-11-07T00:52:26.622Z,97.40
2022-11-07T00:57:31.300Z,97.31
2022-11-07T01:02:34.610Z,97.74
2022-11-07T01:07:39.348Z,96.68
2022-11-07T01:12:42.357Z,96.25
2022-11-07T01:17:45.771Z,96.40
2022-11-07T01:22:49.318Z,95.98
2022-11-07T01:27:53.180Z,96.34
2022-11-07T01:32:56.902Z,96.44
2022-11-07T01:38:00.849Z,96.97
2022-11-07T01:43:03.887Z,97.07
2022-11-07T01:48:08.329Z,97.91
2022-11-07T01:53:11.677Z,96.77
2022-11-07T01:58:15.402Z,96.39
2022-11-07T02:03:21.617Z,96.39
2022-11-07T02:08:27.430Z,97.07
2022-11-07T02:13:32.898Z,96.92
2022-11-07T02:18:39.118Z,96.43
2022-11-07T02:23:51.430Z,96.04
2022-11-07T02:28:57.284Z,96.15
2022-11-07T02:34:00.324Z,96.51
2022-11-07T02:39:03.698Z,96.34
2022-11-07T02:44:11.630Z,96.58
2022-11-07T02:49:14.679Z,96.47
2022-11-07T02:54:17.968Z,96.93
2022-11-07T02:59:26.617Z,96.80
2022-11-07T03:04:30.360Z,97.00
2022-11-07T03:09:33.299Z,97.40
2022-11-07T03:14:37.434Z,96.66
2022-11-07T03:19:40.376Z,97.01
2022-11-07T03:24:43.240Z,97.03
2022-11-07T03:29:46.180Z,97.42
2022-11-07T03:34:49.111Z,97.19
2022-11-07T03:39:52.162Z,97.22
2022-11-07T03:44:55.119Z,97.50
2022-11-07T03:49:58.098Z,98.13
2022-11-07T03:55:03.618Z,98.40
2022-11-07T04:00:07.582Z,98.05
2022-11-07T04:05:19.670Z,98.27
2022-11-07T04:10:22.585Z,98.24
2022-11-07T04:15:44.705Z,98.78
2022-11-07T04:20:47.923Z,98.82
2022-11-07T04:26:09.746Z,98.99
2022-11-07T04:31:12.742Z,99.40
2022-11-07T04:36:16.200Z,99.04
2022-11-07T04:41:21.948Z,99.62
2022-11-07T04:46:25.322Z,99.82
2022-11-07T04:51:28.525Z,99.71
2022-11-07T04:56:34.480Z,99.44
2022-11-07T05:01:37.943Z,99.32
2022-11-07T05:06:42.171Z,99.43
2022-11-07T05:11:47.358Z,99.63
2022-11-07T05:16:52.769Z,99.78
2022-11-07T05:22:21.907Z,99.80
2022-11-07T05:27:26.400Z,99.88
2022-11-07T05:32:29.544Z,100.00
2022-11-07T05:37:33.804Z,99.93
2022-11-07T05:42:36.750Z,100.00
2022-11-07T05:47:40.589Z,100.00
2022-11-07T05:52:43.651Z,100.00
2022-11-07T05:57:47.456Z,100.00
2022-11-07T06:03:00.648Z,100.00
2022-11-07T06:08:04.243Z,100.00
2022-11-07T06:13:10.528Z,100.00
2022-11-07T06:18:19.778Z,100.00
2022-11-07T06:23:23.771Z,100.00
2022-11-07T06:28:27.304Z,97.44
2022-11-07T06:33:31.204Z,61.45
2022-11-07T06:38:35.749Z,49.37
2022-11-07T06:43:39.728Z,45.50
2022-11-07T07:01:53.252Z,43.38
2022-11-07T07:06:56.742Z,42.38
2022-11-07T07:12:00.335Z,41.20
2022-11-07T07:17:07.264Z,42.98
2022-11-07T07:22:14.203Z,41.76
2022-11-07T07:27:18.438Z,39.84
2022-11-07T07:32:40.646Z,41.48
2022-11-07T07:37:44.363Z,36.68
2022-11-07T07:42:48.173Z,38.75
2022-11-07T07:47:53.244Z,38.46
2022-11-07T07:52:58.295Z,38.04
2022-11-07T07:58:01.364Z,35.69
2022-11-07T08:03:09.319Z,36.69
2022-11-07T08:08:12.672Z,37.26
2022-11-07T08:13:16.485Z,36.21
2022-11-07T08:18:22.149Z,34.38
2022-11-07T08:23:25.280Z,35.60
2022-11-07T08:28:31.893Z,36.54
2022-11-07T08:33:36.609Z,36.57
2022-11-07T08:38:39.966Z,37.85
2022-11-07T08:43:42.946Z,38.97
2022-11-07T08:48:46.211Z,36.19
2022-11-07T08:53:49.289Z,36.25
2022-11-07T08:58:52.431Z,35.56
2022-11-07T09:03:58.271Z,35.76
2022-11-07T09:09:02.776Z,35.94
2022-11-07T09:14:06.316Z,34.88
2022-11-07T09:19:09.744Z,35.75
2022-11-07T09:24:12.946Z,36.52
2022-11-07T09:29:16.542Z,37.13
2022-11-07T09:34:20.055Z,36.90
2022-11-07T09:39:23.753Z,38.32
2022-11-07T09:44:45.174Z,38.26
2022-11-07T09:49:56.075Z,37.76
2022-11-07T09:55:24.134Z,40.01
2022-11-07T10:00:31.578Z,39.21
2022-11-07T10:05:49.489Z,38.92
2022-11-07T10:11:00.168Z,40.36
2022-11-07T10:16:21.873Z,40.94
2022-11-07T10:21:40.208Z,41.13
2022-11-07T10:26:45.791Z,41.49
2022-11-07T10:31:59.507Z,41.48
2022-11-07T10:37:03.410Z,42.92
2022-11-07T10:42:14.525Z,43.57
2022-11-07T10:47:20.880Z,44.31
2022-11-07T10:52:25.014Z,43.71
2022-11-07T10:57:30.794Z,44.59
2022-11-07T11:03:02.847Z,45.81
2022-11-07T11:08:36.842Z,44.90
2022-11-07T11:13:39.988Z,43.34
2022-11-07T11:18:51.015Z,44.31
2022-11-07T11:23:55.254Z,41.42
2022-11-07T11:29:09.678Z,41.63
2022-11-07T11:34:26.958Z,41.19
2022-11-07T11:39:42.145Z,40.59
2022-11-07T11:44:46.863Z,40.27
2022-11-07T11:50:01.185Z,37.94
2022-11-07T11:55:14.251Z,38.26
2022-11-07T12:00:22.181Z,37.66
2022-11-07T12:05:59.882Z,36.76
2022-11-07T12:11:13.479Z,35.20
2022-11-07T12:16:40.770Z,32.63
2022-11-07T12:22:14.235Z,33.30
2022-11-07T12:27:50.077Z,33.55
2022-11-07T12:33:05.436Z,34.65
2022-11-07T12:38:25.461Z,33.17
2022-11-07T12:43:56.904Z,31.83
2022-11-07T12:49:23.731Z,32.05
2022-11-07T12:54:39.432Z,31.84
2022-11-07T12:59:47.801Z,31.46
2022-11-07T13:05:19.736Z,34.68
2022-11-07T13:10:41.065Z,34.31
2022-11-07T13:16:13.665Z,38.65
2022-11-07T13:21:08.077Z,44.87
2022-11-07T13:26:44.617Z,48.25
2022-11-07T13:31:37.710Z,44.00
2022-11-07T13:36:41.777Z,50.03
2022-11-07T13:41:47.192Z,52.93
2022-11-07T13:46:54.232Z,54.61
2022-11-07T13:52:04.932Z,55.50
2022-11-07T13:57:28.637Z,52.63
2022-11-07T14:02:34.516Z,56.60
2022-11-07T14:07:41.071Z,57.62
2022-11-07T14:12:45.223Z,56.54
2022-11-07T14:17:48.853Z,59.90
2022-11-07T14:22:55.926Z,60.70
2022-11-07T14:28:00.763Z,60.40
2022-11-07T14:33:05.112Z,62.67
2022-11-07T14:38:17.640Z,63.36
2022-11-07T14:43:24.719Z,65.54
2022-11-07T14:48:29.471Z,66.64
2022-11-07T14:53:56.910Z,63.69
2022-11-07T14:59:00.762Z,64.10
2022-11-07T15:04:27.263Z,66.83
2022-11-07T15:09:34.272Z,68.21
2022-11-07T15:14:38.605Z,68.61
2022-11-07T15:19:41.996Z,69.51
2022-11-07T15:24:48.259Z,69.83
2022-11-07T15:30:00.917Z,71.33
2022-11-07T15:35:43.031Z,71.17
2022-11-07T15:40:39.477Z,73.37
2022-11-07T15:45:44.137Z,75.22
2022-11-07T15:50:50.017Z,77.28
2022-11-07T15:55:56.826Z,78.94
2022-11-07T16:00:59.702Z,76.89
2022-11-07T16:06:14.502Z,81.67
2022-11-07T16:11:17.681Z,84.27
2022-11-07T16:16:24.563Z,86.09
2022-11-07T16:21:31.144Z,87.65
2022-11-07T16:26:39.993Z,88.62
2022-11-07T16:31:44.894Z,90.00
2022-11-07T16:36:50.243Z,90.33
2022-11-07T16:41:55.357Z,90.81
2022-11-07T16:46:58.939Z,92.31
2022-11-07T16:52:03.695Z,92.88
2022-11-07T16:57:13.481Z,93.43
2022-11-07T17:02:23.094Z,93.89
2022-11-07T17:07:26.424Z,94.52
2022-11-07T17:12:30.067Z,95.24
2022-11-07T17:17:34.358Z,95.76
2022-11-07T17:22:37.536Z,95.90
2022-11-07T17:27:43.113Z,96.25
2022-11-07T17:32:46.795Z,96.90
2022-11-07T17:37:52.877Z,96.88
2022-11-07T17:42:59.073Z,97.18
2022-11-07T17:48:04.141Z,96.81
2022-11-07T17:53:07.778Z,97.10
2022-11-07T17:58:11.365Z,97.40
2022-11-07T18:03:15.309Z,97.32
2022-11-07T18:08:45.965Z,97.02
2022-11-07T18:13:42.881Z,97.51
2022-11-07T18:18:46.622Z,97.49
2022-11-07T18:23:49.675Z,97.95
2022-11-07T18:28:56.168Z,97.94
2022-11-07T18:34:02.067Z,97.85
2022-11-07T18:39:13.483Z,98.41
2022-11-07T18:44:17.235Z,98.72
2022-11-07T18:49:20.363Z,98.94
2022-11-07T18:54:25.749Z,99.13
2022-11-07T18:59:28.895Z,99.72
2022-11-07T19:04:32.368Z,99.92
2022-11-07T19:09:37.144Z,100.00
2022-11-07T19:14:40.379Z,100.00
2022-11-07T19:19:43.745Z,100.00
2022-11-07T19:24:47.301Z,100.00
2022-11-07T19:29:51.297Z,100.00
2022-11-07T19:34:55.063Z,100.00
2022-11-07T19:39:58.068Z,100.00
2022-11-07T19:45:02.340Z,100.00
2022-11-07T19:50:05.934Z,100.00
2022-11-07T19:55:10.074Z,100.00
2022-11-07T20:00:14.363Z,100.00
2022-11-07T20:05:24.308Z,100.00
2022-11-07T20:10:27.872Z,100.00
2022-11-07T20:15:31.384Z,100.00
2022-11-07T20:20:35.012Z,100.00
2022-11-07T20:25:41.597Z,100.00
2022-11-07T20:30:45.107Z,100.00
2022-11-07T20:36:03.305Z,100.00
2022-11-07T20:41:07.399Z,100.00
2022-11-07T20:46:16.137Z,100.00
2022-11-07T20:51:22.780Z,100.00
2022-11-07T20:56:28.402Z,100.00
2022-11-07T21:01:36.734Z,100.00
2022-11-07T21:06:41.052Z,100.00
2022-11-07T21:11:45.052Z,100.00
2022-11-07T21:16:48.554Z,100.00
2022-11-07T21:21:52.190Z,100.00
2022-11-07T21:26:56.231Z,100.00
2022-11-07T21:32:00.279Z,100.00
2022-11-07T21:37:12.916Z,100.00
2022-11-07T21:42:16.011Z,100.00
2022-11-07T21:47:19.051Z,100.00
2022-11-07T21:52:22.846Z,100.00
2022-11-07T21:57:27.287Z,100.00
2022-11-07T22:02:30.467Z,100.00
2022-11-07T22:07:35.606Z,100.00
2022-11-07T22:12:39.302Z,100.00
2022-11-07T22:17:43.560Z,100.00
2022-11-07T22:22:47.030Z,100.00
2022-11-07T22:27:51.601Z,100.00
2022-11-07T22:32:54.930Z,100.00
2022-11-07T22:37:59.181Z,100.00
2022-11-07T22:43:02.965Z,100.00
2022-11-07T22:48:07.686Z,100.00
2022-11-07T22:53:13.799Z,100.00
2022-11-07T22:58:18.199Z,100.00
2022-11-07T23:03:22.116Z,100.00
2022-11-07T23:08:25.682Z,100.00
2022-11-07T23:13:30.600Z,100.00
2022-11-07T23:18:33.928Z,100.00
2022-11-07T23:23:42.301Z,100.00
2022-11-07T23:28:46.807Z,100.00
2022-11-07T23:33:49.899Z,100.00
2022-11-07T23:38:53.397Z,100.00
2022-11-07T23:43:56.610Z,100.00
2022-11-07T23:49:19.219Z,100.00
2022-11-07T23:54:41.118Z,100.00
